Skip Navigation Links Skip Navigation Links

Current Weather

Scottsdale, Ariz.

For information only: do not use for flight planning or navigation.
Latest weather
Observation time Thursday, January 27, 2022 10:53 PM MST
Local time Thursday, January 27, 2022 11:23 PM MST
Flight conditions Visual Meteorological Conditions
Winds
Wind direction North (10°)
Wind speed 15 mph
Wind gusting to 25 mph
Visibility 10 mi.
Sky condition
Ceiling unlimited
Sky clear
Temperature 59°F
Dewpoint 0°F
Altimeter 30.29 in.Hg
Pressure change last 3 hours-0.08 in.Hg
Pressure rising more quickly
Derived measurements
Relative humidity 9%
Density altitude 1127 ft.
Sea-level pressure 30.27 in.Hg
Climate data
Temperature minimum, last 6 hours 55°F
Temperature maximum, last 6 hours 66°F
Remarks
Fully automated report.
Automated weather observing station with precipitation discriminator.
METAR KSDL 280553Z AUTO 01013G22KT 10SM CLR 15/M18 A3029 RMK AO2 SLP249 T01501178 10189 20128 53027

Settings

Location code

InnerDrive.Weather 4.0.6770.0 Release CLR 4.0.30319.42000
Copyright ©2018 Inner Drive Technology. All rights reserved. Portions Copyright ©1986-2018 David Braverman.

Find weather

Site navigation


Skip Navigation Links

Place info

Page info

PayPal - The safer, easier way to pay online!

Return home.

Copyright ©2022 Inner Drive Technology. Purveyors of fine, hand-crafted computer software. Page printed 2022-01-28T06:23:41 UTC.